Time;durP1;ratioP1;P1;durP2;ratioP2;P2;SDS_P1;SDS_P2;PMS_P1;PMS_P2;Temp;Humidity;BMP_temperature;BMP_pressure;BME280_temperature;BME280_humidity;BME280_pressure;Samples;Min_cycle;Max_cycle;Signal;HPM_P1;HPM_P2
2021/08/02 00:00:26;;;;;;;12.82;2.00;;;14.20;99.90;;;;;;5071451;28;20477;-87
2021/08/02 00:03:01;;;;;;;18.50;3.88;;;14.20;99.90;;;;;;5071152;28;20036;-84
2021/08/02 00:05:27;;;;;;;22.92;4.20;;;13.90;99.90;;;;;;5088855;28;20028;-83
2021/08/02 00:07:59;;;;;;;24.45;3.75;;;13.80;99.90;;;;;;5091483;28;20392;-83
2021/08/02 00:10:30;;;;;;;24.17;3.60;;;13.70;99.90;;;;;;5073407;28;20020;-85
2021/08/02 00:13:01;;;;;;;28.02;3.15;;;13.60;99.90;;;;;;5073255;28;20016;-84
2021/08/02 00:15:28;;;;;;;23.20;3.20;;;13.50;99.90;;;;;;5076494;28;20485;-84
2021/08/02 00:17:54;;;;;;;23.88;3.28;;;13.40;99.90;;;;;;5071180;28;20040;-84
2021/08/02 00:20:29;;;;;;;9.50;2.75;;;13.40;99.90;;;;;;5074624;28;20032;-85
2021/08/02 00:22:58;;;;;;;10.05;2.83;;;13.30;99.90;;;;;;5074745;28;20031;-84
2021/08/02 00:25:24;;;;;;;12.18;2.83;;;13.20;99.90;;;;;;5075890;28;20024;-83
2021/08/02 00:27:51;;;;;;;9.07;2.30;;;13.20;99.90;;;;;;5074820;28;20077;-85
2021/08/02 00:30:17;;;;;;;16.63;2.53;;;13.10;99.90;;;;;;5074723;28;20032;-84
2021/08/02 00:32:42;;;;;;;12.98;3.22;;;13.10;99.90;;;;;;5074622;28;20051;-86
2021/08/02 00:35:08;;;;;;;19.80;2.22;;;13.10;99.90;;;;;;5080685;28;20503;-85
2021/08/02 00:37:42;;;;;;;10.02;2.22;;;13.10;99.90;;;;;;5094959;28;20138;-84
2021/08/02 00:40:22;;;;;;;13.45;2.40;;;13.10;99.90;;;;;;5094923;28;20032;-84
2021/08/02 00:43:37;;;;;;;6.55;1.85;;;13.10;99.90;;;;;;5094692;28;20024;-84
2021/08/02 00:46:04;;;;;;;7.25;2.10;;;13.10;99.90;;;;;;5083514;28;20039;-85
2021/08/02 00:48:38;;;;;;;16.80;3.35;;;13.10;99.90;;;;;;5056600;28;20488;-85
2021/08/02 00:51:05;;;;;;;18.48;2.83;;;13.10;99.90;;;;;;5074297;28;20025;-86
2021/08/02 00:53:34;;;;;;;20.85;2.42;;;13.00;99.90;;;;;;5074299;28;20032;-85
2021/08/02 00:56:03;;;;;;;10.43;2.70;;;13.00;99.90;;;;;;5081497;28;20028;-86
2021/08/02 00:58:31;;;;;;;9.82;1.95;;;13.10;99.90;;;;;;5076364;28;20031;-86
2021/08/02 01:00:57;;;;;;;9.93;2.30;;;13.10;99.90;;;;;;5076347;28;20024;-86
2021/08/02 01:03:24;;;;;;;13.23;2.85;;;13.10;99.90;;;;;;5076157;28;20203;-86
2021/08/02 01:05:55;;;;;;;11.10;3.00;;;13.10;99.90;;;;;;5090808;28;20016;-86
2021/08/02 01:08:23;;;;;;;7.38;1.90;;;13.00;99.90;;;;;;5075346;28;20028;-87
2021/08/02 01:10:55;;;;;;;10.63;2.20;;;13.00;99.90;;;;;;5074092;28;20020;-86
2021/08/02 01:13:24;;;;;;;15.07;2.65;;;13.00;99.90;;;;;;5055999;28;20020;-86
2021/08/02 01:15:52;;;;;;;14.30;2.63;;;13.10;99.90;;;;;;5073938;28;20362;-85
2021/08/02 01:18:20;;;;;;;13.07;2.53;;;12.90;99.90;;;;;;5094095;28;20535;-86
2021/08/02 01:20:48;;;;;;;16.80;2.45;;;12.90;99.90;;;;;;5077872;28;20060;-86
2021/08/02 01:23:15;;;;;;;17.63;3.28;;;13.00;99.90;;;;;;5073562;28;20024;-86
2021/08/02 01:25:41;;;;;;;12.70;3.22;;;13.00;99.90;;;;;;5073761;28;20050;-86
2021/08/02 01:28:15;;;;;;;12.20;2.40;;;13.10;99.90;;;;;;5071793;28;20039;-85
2021/08/02 01:30:45;;;;;;;14.98;2.53;;;13.00;99.90;;;;;;5093472;28;20028;-85
2021/08/02 01:33:12;;;;;;;11.63;3.83;;;13.20;99.90;;;;;;5075582;28;20017;-85
2021/08/02 01:35:39;;;;;;;14.05;2.83;;;13.20;99.90;;;;;;5093859;28;20103;-86
2021/08/02 01:38:05;;;;;;;11.40;2.33;;;13.30;99.90;;;;;;5080152;28;20025;-84
2021/08/02 01:40:31;;;;;;;10.73;2.50;;;13.30;99.90;;;;;;5073589;28;20035;-86
2021/08/02 01:43:02;;;;;;;16.58;2.70;;;13.30;99.90;;;;;;5073493;28;20107;-86
2021/08/02 01:45:28;;;;;;;14.23;3.10;;;13.30;99.90;;;;;;5073502;28;20040;-86
2021/08/02 01:48:16;;;;;;;19.85;5.28;;;13.30;99.90;;;;;;5073892;28;20037;-85
2021/08/02 01:51:17;;;;;;;16.85;4.25;;;13.30;99.90;;;;;;5061191;28;20170;-86
2021/08/02 01:54:12;;;;;;;9.30;2.65;;;13.30;99.90;;;;;;5093513;28;20038;-85
2021/08/02 01:56:47;;;;;;;13.70;2.55;;;13.20;99.90;;;;;;5075320;28;20016;-86
2021/08/02 01:59:23;;;;;;;7.47;2.20;;;13.20;99.90;;;;;;5076202;28;20511;-85
2021/08/02 02:02:05;;;;;;;7.55;2.33;;;13.10;99.90;;;;;;5054813;28;20481;-84
2021/08/02 02:04:37;;;;;;;8.93;2.47;;;13.10;99.90;;;;;;5072945;28;20405;-85
2021/08/02 02:07:04;;;;;;;16.20;3.03;;;13.10;99.90;;;;;;5072985;28;20039;-85
2021/08/02 02:09:35;;;;;;;12.38;4.30;;;13.00;99.90;;;;;;5073339;28;20150;-85
2021/08/02 02:12:02;;;;;;;5.18;2.70;;;13.00;99.90;;;;;;5072674;28;20027;-85
2021/08/02 02:14:30;;;;;;;6.65;2.30;;;13.00;99.90;;;;;;5072820;28;20440;-85
2021/08/02 02:16:58;;;;;;;18.92;3.80;;;13.00;99.90;;;;;;5072641;28;20021;-85
2021/08/02 02:19:26;;;;;;;12.07;2.58;;;12.90;99.90;;;;;;5066999;28;20024;-85
2021/08/02 02:21:53;;;;;;;11.38;2.63;;;13.00;99.90;;;;;;5092786;28;20024;-85
2021/08/02 02:24:19;;;;;;;10.38;2.65;;;12.90;99.90;;;;;;5074699;28;20081;-86
2021/08/02 02:26:47;;;;;;;24.60;3.78;;;12.90;99.90;;;;;;5074642;28;20107;-86
2021/08/02 02:29:15;;;;;;;13.50;2.40;;;12.80;99.90;;;;;;5084384;28;20074;-86
2021/08/02 02:31:44;;;;;;;20.90;3.38;;;12.80;99.90;;;;;;5054358;28;20025;-86
2021/08/02 02:34:11;;;;;;;12.65;3.35;;;12.70;99.90;;;;;;5054560;28;20021;-86
2021/08/02 02:36:39;;;;;;;22.75;4.40;;;12.70;99.90;;;;;;5072386;28;20044;-86
2021/08/02 02:39:06;;;;;;;10.63;2.72;;;12.60;99.90;;;;;;5058278;28;20016;-87
2021/08/02 02:41:33;;;;;;;10.20;3.40;;;12.60;99.90;;;;;;5091689;28;20039;-86
2021/08/02 02:44:00;;;;;;;24.05;3.80;;;12.70;99.90;;;;;;5092600;28;20024;-86
2021/08/02 02:46:26;;;;;;;16.55;2.95;;;12.80;99.90;;;;;;5092386;28;20035;-86
2021/08/02 02:48:54;;;;;;;18.33;4.20;;;12.80;99.90;;;;;;5092452;28;20043;-86
2021/08/02 02:51:20;;;;;;;18.05;3.67;;;12.90;99.90;;;;;;5090649;28;20024;-86
2021/08/02 02:53:47;;;;;;;15.95;4.32;;;13.10;99.90;;;;;;5074207;28;20020;-83
2021/08/02 02:56:16;;;;;;;24.00;3.95;;;12.90;99.90;;;;;;5092277;28;20017;-85
2021/08/02 02:58:42;;;;;;;18.98;4.38;;;12.90;99.90;;;;;;5074219;28;20027;-85
2021/08/02 03:01:13;;;;;;;9.93;2.70;;;12.80;99.90;;;;;;5060783;28;20088;-85
2021/08/02 03:03:43;;;;;;;16.23;3.33;;;12.70;99.90;;;;;;5071984;28;20033;-84
2021/08/02 03:06:09;;;;;;;17.38;3.50;;;12.60;99.90;;;;;;5071945;28;20020;-85
2021/08/02 03:08:35;;;;;;;9.93;3.25;;;12.50;99.90;;;;;;5071920;28;20074;-86
2021/08/02 03:11:05;;;;;;;10.95;2.72;;;12.40;99.90;;;;;;5065004;28;20381;-85
2021/08/02 03:13:31;;;;;;;7.95;2.72;;;12.40;99.90;;;;;;5091958;28;20024;-86
2021/08/02 03:15:56;;;;;;;8.00;2.47;;;12.30;99.90;;;;;;5092088;28;20028;-86
2021/08/02 03:18:22;;;;;;;5.82;2.22;;;12.30;99.90;;;;;;5073992;28;20047;-86
2021/08/02 03:20:47;;;;;;;13.00;3.20;;;12.20;99.90;;;;;;5091577;28;20103;-86
2021/08/02 03:23:26;;;;;;;13.50;2.45;;;12.20;99.90;;;;;;5091986;28;20024;-84
2021/08/02 03:26:22;;;;;;;12.55;3.30;;;12.20;99.90;;;;;;5074014;28;20448;-85
2021/08/02 03:28:55;;;;;;;19.30;3.53;;;12.10;99.90;;;;;;5089944;28;20036;-86
2021/08/02 03:31:24;;;;;;;;;;;12.00;99.90;;;;;;5083390;28;20035;-85
2021/08/02 03:33:53;;;;;;;9.15;2.42;;;11.90;99.90;;;;;;5053715;28;19908;-85
2021/08/02 03:36:19;;;;;;;12.25;2.38;;;11.80;99.90;;;;;;5071622;28;20032;-86
2021/08/02 03:38:49;;;;;;;10.27;2.78;;;11.80;99.90;;;;;;5053727;28;20024;-86
2021/08/02 03:41:17;;;;;;;11.50;3.28;;;11.80;99.90;;;;;;5075600;28;20030;-86
2021/08/02 03:43:43;;;;;;;10.45;2.58;;;11.90;99.90;;;;;;5073733;28;20153;-86
2021/08/02 03:46:10;;;;;;;12.15;2.83;;;11.90;99.90;;;;;;5073497;28;20484;-85
2021/08/02 03:48:36;;;;;;;8.23;2.30;;;11.80;99.90;;;;;;5091793;28;20043;-86
2021/08/02 03:51:03;;;;;;;13.63;3.10;;;11.80;99.90;;;;;;5091339;28;20067;-86
2021/08/02 03:53:49;;;;;;;9.60;2.90;;;11.90;99.90;;;;;;5055601;28;20028;-86
2021/08/02 03:56:16;;;;;;;22.52;3.75;;;12.00;99.90;;;;;;5075049;28;20041;-86
2021/08/02 03:58:42;;;;;;;15.57;3.25;;;12.10;99.90;;;;;;5075480;28;20016;-84
2021/08/02 04:01:09;;;;;;;13.43;4.72;;;12.20;99.90;;;;;;5075318;28;20157;-82
2021/08/02 04:03:35;;;;;;;13.10;3.13;;;12.40;99.90;;;;;;5093337;28;20028;-85
2021/08/02 04:06:01;;;;;;;22.90;3.63;;;12.50;99.90;;;;;;5095565;28;20080;-84
2021/08/02 04:08:27;;;;;;;18.15;2.92;;;12.60;99.90;;;;;;5077507;28;20035;-84
2021/08/02 04:10:54;;;;;;;11.80;3.45;;;12.60;99.90;;;;;;5095337;28;20020;-84
2021/08/02 04:13:19;;;;;;;17.65;2.60;;;12.60;99.90;;;;;;5081872;28;20469;-85
2021/08/02 04:15:46;;;;;;;18.13;3.05;;;12.60;99.90;;;;;;5075167;28;20023;-84
2021/08/02 04:18:12;;;;;;;20.45;4.53;;;12.60;99.90;;;;;;5075030;28;20020;-85
2021/08/02 04:20:37;;;;;;;17.98;3.95;;;12.60;99.90;;;;;;5075080;28;20032;-85
2021/08/02 04:23:03;;;;;;;25.52;4.68;;;12.70;99.90;;;;;;5064511;28;20503;-84
2021/08/02 04:25:28;;;;;;;22.67;4.10;;;12.80;99.90;;;;;;5095121;28;20044;-84
2021/08/02 04:27:55;;;;;;;20.45;5.63;;;12.80;99.90;;;;;;5076942;28;20031;-85
2021/08/02 04:30:21;;;;;;;18.75;3.72;;;12.90;99.90;;;;;;5076816;28;20496;-86
2021/08/02 04:32:47;;;;;;;29.20;4.90;;;12.90;99.90;;;;;;5091935;28;20473;-84
2021/08/02 04:35:13;;;;;;;21.58;3.58;;;13.00;99.90;;;;;;5074739;28;20111;-86
2021/08/02 04:37:39;;;;;;;17.85;3.47;;;13.10;99.90;;;;;;5056846;28;20055;-85
2021/08/02 04:40:06;;;;;;;22.33;3.63;;;13.10;99.90;;;;;;5074711;28;20059;-86
2021/08/02 04:42:38;;;;;;;15.20;3.30;;;13.20;99.90;;;;;;5074387;28;20566;-86
2021/08/02 04:45:05;;;;;;;26.27;4.20;;;13.20;99.90;;;;;;5075019;28;20483;-86
2021/08/02 04:47:31;;;;;;;16.52;4.00;;;13.20;99.90;;;;;;5076671;28;20028;-85
2021/08/02 04:49:56;;;;;;;13.55;3.40;;;13.20;99.90;;;;;;5094754;28;20031;-85
2021/08/02 04:52:22;;;;;;;16.02;4.45;;;13.20;99.90;;;;;;5089016;28;20031;-84
2021/08/02 04:54:47;;;;;;;22.00;3.72;;;13.20;99.90;;;;;;5074491;28;20028;-84
2021/08/02 04:57:13;;;;;;;21.33;3.75;;;13.20;99.90;;;;;;5074436;28;20020;-84
2021/08/02 04:59:39;;;;;;;17.17;3.70;;;13.20;99.90;;;;;;5056434;28;20024;-84
2021/08/02 05:02:06;;;;;;;25.70;4.28;;;13.20;99.90;;;;;;5056311;28;20044;-84
2021/08/02 05:04:32;;;;;;;26.30;3.55;;;13.20;99.90;;;;;;5093744;28;20028;-83
2021/08/02 05:06:57;;;;;;;17.83;4.38;;;13.20;99.90;;;;;;5094470;28;20101;-84
2021/08/02 05:09:23;;;;;;;17.17;3.40;;;13.30;99.90;;;;;;5094290;28;20411;-84
2021/08/02 05:11:51;;;;;;;18.17;3.20;;;13.40;99.90;;;;;;5094095;28;20028;-84
2021/08/02 05:14:17;;;;;;;26.33;4.05;;;13.40;99.90;;;;;;5092486;28;20063;-86
2021/08/02 05:16:44;;;;;;;35.20;4.95;;;13.60;99.90;;;;;;5076121;28;20055;-85
2021/08/02 05:19:10;;;;;;;24.83;4.38;;;13.70;99.90;;;;;;5076184;28;20534;-84
2021/08/02 05:21:35;;;;;;;14.77;3.63;;;13.80;99.90;;;;;;5093991;28;20140;-84
2021/08/02 05:24:01;;;;;;;14.45;3.20;;;13.90;99.90;;;;;;5066200;28;20244;-84
2021/08/02 05:26:26;;;;;;;26.13;3.63;;;14.00;99.90;;;;;;5073825;28;20090;-84
2021/08/02 05:28:52;;;;;;;20.65;4.10;;;14.20;99.90;;;;;;5073827;28;20547;-84
2021/08/02 05:31:18;;;;;;;18.98;3.90;;;14.20;99.90;;;;;;5075911;28;20058;-83
2021/08/02 05:33:43;;;;;;;17.20;3.40;;;14.30;99.90;;;;;;5073707;28;20020;-85
2021/08/02 05:36:09;;;;;;;22.67;3.15;;;14.40;99.90;;;;;;5073636;28;20493;-83
2021/08/02 05:38:34;;;;;;;13.45;2.67;;;14.50;99.90;;;;;;5074064;28;20021;-83
2021/08/02 05:41:00;;;;;;;23.00;3.53;;;14.50;99.90;;;;;;5073601;28;20033;-84
2021/08/02 05:43:25;;;;;;;17.50;3.03;;;14.50;99.90;;;;;;5073622;28;20522;-84
2021/08/02 05:45:52;;;;;;;16.52;2.22;;;14.60;99.90;;;;;;5075626;28;20026;-84
2021/08/02 05:48:18;;;;;;;13.82;2.78;;;14.60;99.90;;;;;;5057873;28;20530;-83
2021/08/02 05:50:43;;;;;;;10.07;2.40;;;14.70;99.90;;;;;;5073287;28;20028;-85
2021/08/02 05:53:09;;;;;;;12.98;2.20;;;14.80;99.90;;;;;;5086178;28;20028;-83
2021/08/02 05:55:34;;;;;;;16.67;2.60;;;14.80;99.90;;;;;;5093546;28;20070;-84
2021/08/02 05:58:00;;;;;;;15.13;3.42;;;14.90;99.90;;;;;;5093411;28;20027;-82
2021/08/02 06:00:26;;;;;;;18.50;3.72;;;14.90;99.90;;;;;;5075088;28;20051;-84
2021/08/02 06:02:51;;;;;;;27.70;5.00;;;15.00;99.90;;;;;;5089961;28;20103;-81
2021/08/02 06:05:17;;;;;;;21.20;3.30;;;15.20;99.90;;;;;;5058659;28;20031;-84
2021/08/02 06:07:43;;;;;;;14.43;2.25;;;15.10;99.90;;;;;;5066648;28;20031;-83
2021/08/02 06:10:12;;;;;;;18.55;3.75;;;15.10;99.90;;;;;;5088239;28;20077;-84
2021/08/02 06:12:38;;;;;;;26.08;3.80;;;15.30;99.90;;;;;;5060875;28;20020;-85
2021/08/02 06:15:05;;;;;;;18.70;2.88;;;15.50;99.90;;;;;;5081204;28;20050;-84
2021/08/02 06:17:31;;;;;;;15.50;2.78;;;15.60;99.90;;;;;;5052399;28;20036;-84
2021/08/02 06:19:56;;;;;;;18.73;3.35;;;15.70;99.90;;;;;;5069219;28;20024;-86
2021/08/02 06:22:22;;;;;;;15.15;4.25;;;15.80;99.90;;;;;;5085804;28;20032;-83
2021/08/02 06:24:47;;;;;;;20.38;3.25;;;15.80;99.90;;;;;;5059359;28;20036;-84
2021/08/02 06:27:13;;;;;;;20.92;3.08;;;15.80;99.90;;;;;;5061653;28;20085;-87
2021/08/02 06:29:39;;;;;;;16.65;2.15;;;15.80;99.90;;;;;;5080935;28;20548;-85
2021/08/02 06:32:08;;;;;;;13.18;3.42;;;15.80;99.90;;;;;;5060187;28;20017;-82
2021/08/02 06:34:34;;;;;;;18.45;2.78;;;15.80;99.90;;;;;;5078969;28;20109;-83
2021/08/02 06:37:00;;;;;;;12.60;2.22;;;15.80;99.90;;;;;;5068875;28;20116;-82
2021/08/02 06:39:25;;;;;;;12.07;2.03;;;15.80;99.90;;;;;;5074274;28;20020;-86
2021/08/02 06:41:51;;;;;;;13.10;2.33;;;15.60;99.90;;;;;;5074204;28;20041;-83
2021/08/02 06:44:16;;;;;;;12.00;2.10;;;15.50;99.90;;;;;;5070179;28;20445;-85
2021/08/02 06:46:42;;;;;;;10.27;2.08;;;15.30;99.90;;;;;;5080796;28;20044;-85
2021/08/02 06:49:07;;;;;;;7.05;2.40;;;15.40;99.90;;;;;;5084700;28;20108;-83
2021/08/02 06:51:33;;;;;;;13.80;2.63;;;15.30;99.90;;;;;;5082201;28;20086;-84
2021/08/02 06:53:58;;;;;;;12.95;2.10;;;15.40;99.90;;;;;;5085302;28;20640;-83
2021/08/02 06:56:24;;;;;;;5.78;2.35;;;15.50;99.90;;;;;;5068380;28;20074;-85
2021/08/02 06:58:50;;;;;;;12.63;2.03;;;15.60;99.90;;;;;;5086890;28;20111;-85
2021/08/02 07:01:16;;;;;;;8.80;2.08;;;15.60;99.90;;;;;;5080792;28;20054;-85
2021/08/02 07:03:42;;;;;;;4.50;1.75;;;15.60;99.90;;;;;;5092178;28;20111;-86
2021/08/02 07:06:08;;;;;;;7.90;1.70;;;15.60;99.90;;;;;;5091812;28;20028;-88
2021/08/02 07:08:37;;;;;;;7.90;2.10;;;15.60;99.90;;;;;;5077594;28;20028;-86
2021/08/02 07:11:03;;;;;;;8.07;1.88;;;15.80;99.90;;;;;;5071692;28;20221;-85
2021/08/02 07:13:28;;;;;;;13.85;3.72;;;16.00;99.90;;;;;;5071706;28;20545;-86
2021/08/02 07:15:54;;;;;;;8.40;1.92;;;16.00;99.90;;;;;;5071783;28;20017;-83
2021/08/02 07:18:21;;;;;;;7.13;1.80;;;15.80;99.90;;;;;;5082522;28;20381;-85
2021/08/02 07:20:48;;;;;;;12.63;2.15;;;15.50;99.90;;;;;;5091838;28;20028;-83
2021/08/02 07:23:15;;;;;;;6.65;2.30;;;15.40;99.90;;;;;;5091781;28;20077;-83
2021/08/02 07:25:41;;;;;;;10.65;2.40;;;15.30;99.90;;;;;;5091781;28;20028;-83
2021/08/02 07:28:07;;;;;;;16.73;3.22;;;15.30;99.90;;;;;;5071737;28;20114;-80
2021/08/02 07:30:32;;;;;;;10.35;2.20;;;15.40;99.90;;;;;;5091697;28;20024;-82
2021/08/02 07:32:58;;;;;;;14.20;2.30;;;15.40;99.90;;;;;;5091585;28;20016;-80
2021/08/02 07:35:23;;;;;;;18.15;2.80;;;15.50;99.90;;;;;;5091729;28;20530;-80
2021/08/02 07:37:49;;;;;;;9.85;2.30;;;15.50;99.90;;;;;;5073012;28;20024;-80
2021/08/02 07:40:15;;;;;;;11.30;2.10;;;15.60;99.90;;;;;;5071663;28;20551;-79
2021/08/02 07:42:41;;;;;;;12.40;2.35;;;15.60;99.90;;;;;;5082287;28;20039;-81
2021/08/02 07:45:07;;;;;;;11.88;2.15;;;15.70;99.90;;;;;;5091759;28;20032;-82
2021/08/02 07:47:32;;;;;;;14.20;2.40;;;15.80;99.90;;;;;;5091437;28;20036;-81
2021/08/02 07:49:59;;;;;;;14.13;2.67;;;16.00;99.90;;;;;;5091612;28;20055;-83
2021/08/02 07:52:24;;;;;;;23.00;2.75;;;16.00;99.90;;;;;;5071277;28;20106;-80
2021/08/02 07:54:50;;;;;;;7.80;1.80;;;16.20;99.90;;;;;;5091683;28;20047;-80
2021/08/02 07:57:15;;;;;;;12.65;2.15;;;16.20;99.90;;;;;;5091549;28;20031;-80
2021/08/02 07:59:41;;;;;;;13.57;2.03;;;16.20;99.90;;;;;;5073421;28;20028;-81
2021/08/02 08:02:06;;;;;;;10.90;1.80;;;16.40;99.90;;;;;;5089459;28;20024;-81
2021/08/02 08:04:33;;;;;;;12.18;1.73;;;16.70;99.90;;;;;;5091552;28;20111;-80
2021/08/02 08:06:58;;;;;;;7.80;1.85;;;16.70;99.90;;;;;;5091378;28;20476;-80
2021/08/02 08:09:24;;;;;;;8.20;2.00;;;16.60;99.90;;;;;;5091564;28;20039;-79
2021/08/02 08:11:50;;;;;;;6.20;1.70;;;16.10;99.90;;;;;;5077740;28;20032;-80
2021/08/02 08:14:16;;;;;;;8.35;1.85;;;15.60;99.90;;;;;;5071456;28;20032;-81
2021/08/02 08:16:42;;;;;;;7.38;2.05;;;15.20;99.90;;;;;;5071114;28;20032;-79
2021/08/02 08:19:07;;;;;;;14.50;1.83;;;14.90;99.90;;;;;;5071143;28;20028;-81
2021/08/02 08:21:35;;;;;;;12.07;3.17;;;14.60;99.90;;;;;;5060473;28;20036;-81
2021/08/02 08:24:03;;;;;;;7.65;2.03;;;14.40;99.90;;;;;;5073224;28;20032;-80
2021/08/02 08:26:29;;;;;;;12.18;2.38;;;14.20;99.90;;;;;;5091233;28;20028;-80
2021/08/02 08:28:55;;;;;;;5.88;2.05;;;14.20;99.90;;;;;;5073282;28;20031;-81
2021/08/02 08:31:21;;;;;;;14.13;2.75;;;14.20;99.90;;;;;;5087623;28;20435;-81
2021/08/02 08:33:49;;;;;;;10.80;2.40;;;14.50;99.90;;;;;;5071053;28;20477;-84
2021/08/02 08:36:16;;;;;;;6.82;1.95;;;14.60;99.90;;;;;;5085948;28;20388;-84
2021/08/02 08:38:42;;;;;;;8.68;1.98;;;14.80;99.90;;;;;;5091333;28;20505;-81
2021/08/02 08:41:12;;;;;;;7.72;2.05;;;15.00;99.90;;;;;;5094091;28;20028;-80
2021/08/02 08:43:38;;;;;;;10.38;2.20;;;15.20;99.90;;;;;;5094853;28;20016;-79
2021/08/02 08:46:04;;;;;;;13.10;2.63;;;15.40;99.90;;;;;;5066313;28;20040;-80
2021/08/02 08:48:30;;;;;;;4.70;2.20;;;15.50;99.90;;;;;;5074510;28;20013;-80
2021/08/02 08:50:56;;;;;;;9.18;2.13;;;15.80;99.90;;;;;;5056427;28;20032;-79
2021/08/02 08:53:22;;;;;;;9.95;3.00;;;16.20;99.90;;;;;;5039939;28;20028;-79
2021/08/02 08:55:48;;;;;;;11.63;2.13;;;16.50;99.90;;;;;;5078771;28;20016;-78
2021/08/02 08:58:13;;;;;;;15.43;2.92;;;16.60;99.90;;;;;;5094560;28;20035;-79
2021/08/02 09:00:39;;;;;;;17.48;2.95;;;16.60;99.90;;;;;;5094462;28;20020;-79
2021/08/02 09:03:14;;;;;;;10.45;2.00;;;16.50;99.90;;;;;;5094248;28;20484;-80
2021/08/02 09:05:40;;;;;;;11.43;2.20;;;16.50;99.90;;;;;;5075461;28;20141;-80
2021/08/02 09:08:06;;;;;;;11.48;3.40;;;16.60;99.90;;;;;;5085436;28;20028;-80
2021/08/02 09:10:33;;;;;;;17.27;2.70;;;16.70;99.90;;;;;;5087498;28;20111;-79
2021/08/02 09:13:01;;;;;;;16.60;3.17;;;16.80;99.90;;;;;;5073723;28;20020;-81
2021/08/02 09:15:42;;;;;;;8.63;2.40;;;17.10;99.90;;;;;;5056054;28;20077;-81
2021/08/02 09:18:14;;;;;;;12.23;1.83;;;17.60;99.90;;;;;;5073906;28;20020;-80
2021/08/02 09:20:39;;;;;;;9.23;2.17;;;18.00;99.90;;;;;;5094245;28;20035;-81
2021/08/02 09:23:10;;;;;;;7.90;2.28;;;18.40;99.90;;;;;;5075870;28;20028;-83
2021/08/02 09:25:46;;;;;;;9.05;1.85;;;18.80;99.90;;;;;;5094133;28;20042;-81
2021/08/02 09:28:14;;;;;;;14.10;2.50;;;18.70;99.90;;;;;;5077607;28;20028;-81
2021/08/02 09:30:51;;;;;;;9.68;1.95;;;18.70;99.90;;;;;;5055721;28;20025;-80
2021/08/02 09:33:16;;;;;;;16.30;3.20;;;18.60;99.90;;;;;;5073579;28;20056;-80
2021/08/02 09:35:47;;;;;;;18.27;3.13;;;18.10;99.90;;;;;;5055636;28;20052;-80
2021/08/02 09:38:14;;;;;;;15.40;3.88;;;17.20;99.90;;;;;;5086289;28;20032;-80
2021/08/02 09:40:46;;;;;;;16.90;2.40;;;16.70;99.90;;;;;;5093865;28;20059;-80
2021/08/02 09:43:14;;;;;;;23.60;3.33;;;16.30;99.90;;;;;;5093469;28;20034;-84
2021/08/02 09:45:45;;;;;;;19.45;3.80;;;16.10;99.90;;;;;;5075684;28;20465;-81
2021/08/02 09:48:14;;;;;;;22.38;3.17;;;16.10;99.90;;;;;;5073306;28;20442;-82
2021/08/02 09:50:40;;;;;;;19.05;2.80;;;16.20;99.90;;;;;;5075144;28;20035;-83
2021/08/02 09:53:06;;;;;;;15.60;3.15;;;16.40;99.90;;;;;;5093398;28;20438;-81
2021/08/02 09:55:31;;;;;;;10.70;2.85;;;16.50;99.90;;;;;;5093637;28;20020;-80
2021/08/02 09:57:57;;;;;;;13.15;2.22;;;16.70;99.90;;;;;;5067971;28;20283;-82
2021/08/02 10:00:22;;;;;;;22.17;3.53;;;16.60;99.90;;;;;;5057617;28;20028;-82
2021/08/02 10:02:51;;;;;;;22.88;2.95;;;16.70;99.90;;;;;;5068539;28;20024;-83
2021/08/02 10:05:18;;;;;;;11.40;2.33;;;16.80;99.90;;;;;;5068047;28;20420;-85
2021/08/02 10:07:45;;;;;;;38.75;3.92;;;17.00;99.90;;;;;;5059420;28;20029;-85
2021/08/02 10:10:15;;;;;;;13.88;3.10;;;17.10;99.90;;;;;;5061493;28;20067;-87
2021/08/02 10:12:43;;;;;;;19.55;3.13;;;17.10;99.90;;;;;;5075037;28;20024;-84
2021/08/02 10:15:13;;;;;;;18.05;3.33;;;17.20;99.90;;;;;;5086793;28;20032;-85
2021/08/02 10:17:44;;;;;;;18.27;2.75;;;17.30;99.90;;;;;;5077442;28;20111;-84
2021/08/02 10:20:31;;;;;;;13.02;2.58;;;17.50;99.90;;;;;;5063303;28;20039;-82
2021/08/02 10:22:58;;;;;;;13.75;2.90;;;17.70;99.90;;;;;;5077783;28;20028;-83
2021/08/02 10:25:38;;;;;;;15.27;3.50;;;17.90;99.90;;;;;;5067517;28;20032;-84
2021/08/02 10:28:12;;;;;;;19.83;3.22;;;18.20;99.90;;;;;;5068436;28;20028;-82
2021/08/02 10:30:38;;;;;;;8.70;2.67;;;18.60;99.90;;;;;;5087173;28;20111;-82
2021/08/02 10:33:04;;;;;;;14.95;2.53;;;18.90;99.90;;;;;;5068882;28;20032;-84
2021/08/02 10:35:40;;;;;;;18.02;2.78;;;18.90;99.90;;;;;;5052341;28;20017;-83
2021/08/02 10:38:16;;;;;;;17.30;1.85;;;18.60;99.90;;;;;;5051308;28;20016;-81
2021/08/02 10:41:02;;;;;;;11.63;2.72;;;18.60;99.90;;;;;;5078826;28;20032;-83
2021/08/02 10:43:35;;;;;;;24.02;2.92;;;18.80;99.90;;;;;;5083113;28;20041;-85
2021/08/02 10:46:15;;;;;;;12.52;2.85;;;18.90;99.90;;;;;;5082074;28;20107;-84
2021/08/02 10:48:40;;;;;;;13.13;2.70;;;18.80;99.90;;;;;;5077062;28;20031;-82
2021/08/02 10:51:12;;;;;;;14.90;2.58;;;18.60;99.90;;;;;;5082681;28;20021;-83
2021/08/02 10:53:37;;;;;;;15.63;3.30;;;18.70;99.90;;;;;;5056821;28;20020;-81
2021/08/02 10:56:03;;;;;;;19.85;3.15;;;18.50;99.90;;;;;;5076687;28;20023;-80
2021/08/02 10:58:32;;;;;;;18.30;2.92;;;18.70;99.90;;;;;;5080139;28;20035;-83
2021/08/02 11:01:03;;;;;;;14.32;2.90;;;18.70;99.90;;;;;;5073095;28;20060;-83
2021/08/02 11:03:36;;;;;;;5.50;1.55;;;18.80;99.90;;;;;;5073866;28;20064;-83
2021/08/02 11:06:07;;;;;;;21.83;3.03;;;18.80;99.90;;;;;;5069696;28;20020;-82
2021/08/02 11:08:41;;;;;;;10.43;2.20;;;18.70;99.90;;;;;;5058543;28;20084;-82
2021/08/02 11:11:08;;;;;;;18.45;2.28;;;18.50;99.90;;;;;;5062997;28;20039;-82
2021/08/02 11:13:34;;;;;;;17.05;2.20;;;18.30;99.90;;;;;;5084144;28;20028;-82
2021/08/02 11:16:00;;;;;;;13.82;2.45;;;18.30;99.90;;;;;;5086091;28;20069;-82
2021/08/02 11:18:27;;;;;;;16.20;2.55;;;18.40;99.90;;;;;;5087007;28;20161;-83
2021/08/02 11:20:56;;;;;;;10.30;2.17;;;18.20;99.90;;;;;;5080362;28;20035;-82
2021/08/02 11:23:35;;;;;;;14.93;3.97;;;18.40;99.90;;;;;;5074688;28;20024;-82
2021/08/02 11:26:09;;;;;;;19.50;3.53;;;18.50;99.90;;;;;;5069070;28;20037;-81
2021/08/02 11:28:43;;;;;;;13.27;2.90;;;18.60;99.90;;;;;;5087204;28;20069;-81
2021/08/02 11:31:10;;;;;;;14.45;2.33;;;18.70;99.90;;;;;;5059112;28;20401;-81
2021/08/02 11:33:41;;;;;;;16.33;3.05;;;19.00;99.90;;;;;;5081876;28;20078;-81
2021/08/02 11:36:15;;;;;;;7.70;2.15;;;19.10;99.90;;;;;;5078092;28;20077;-81
2021/08/02 11:38:41;;;;;;;29.27;4.43;;;19.10;99.90;;;;;;5051468;28;20020;-83
2021/08/02 11:41:06;;;;;;;16.92;2.45;;;19.20;99.90;;;;;;5078100;28;20112;-80
2021/08/02 11:43:44;;;;;;;12.32;3.20;;;19.40;99.90;;;;;;5088164;28;20032;-80
2021/08/02 11:46:13;;;;;;;18.42;2.97;;;19.60;99.90;;;;;;5091690;28;20027;-79
2021/08/02 11:48:42;;;;;;;22.40;2.95;;;19.70;99.90;;;;;;5091756;28;20102;-80
2021/08/02 11:51:10;;;;;;;20.08;3.03;;;19.80;99.90;;;;;;5091444;28;20028;-81
2021/08/02 11:53:36;;;;;;;10.23;1.85;;;19.60;99.90;;;;;;5091554;28;20103;-80
2021/08/02 11:56:03;;;;;;;10.20;2.10;;;19.50;99.90;;;;;;5073514;28;20029;-80
2021/08/02 11:58:42;;;;;;;13.85;2.17;;;19.60;99.90;;;;;;5071504;28;20052;-79
2021/08/02 12:01:09;;;;;;;8.98;1.73;;;19.70;99.90;;;;;;5071576;28;20036;-78
2021/08/02 12:03:35;;;;;;;12.02;2.75;;;19.80;99.90;;;;;;5071386;28;20449;-81
2021/08/02 12:06:06;;;;;;;16.50;2.15;;;19.90;99.90;;;;;;5067391;28;20028;-80
2021/08/02 12:08:32;;;;;;;8.55;2.53;;;20.20;99.90;;;;;;5091645;28;20028;-79
2021/08/02 12:11:06;;;;;;;12.07;2.05;;;20.30;99.90;;;;;;5091299;28;20020;-80
2021/08/02 12:13:43;;;;;;;17.67;2.42;;;20.30;99.90;;;;;;5091404;28;20020;-82
2021/08/02 12:16:10;;;;;;;8.55;1.85;;;21.10;99.90;;;;;;5063445;28;20020;-80
2021/08/02 12:18:37;;;;;;;8.70;1.80;;;21.20;99.90;;;;;;5075026;28;20020;-82
2021/08/02 12:21:31;;;;;;;6.97;1.65;;;21.40;99.90;;;;;;5075042;28;20526;-80
2021/08/02 12:24:04;;;;;;;10.45;2.35;;;21.70;99.90;;;;;;5072344;28;20037;-81
2021/08/02 12:26:30;;;;;;;12.90;2.53;;;21.50;99.90;;;;;;5075921;28;20082;-81
2021/08/02 12:28:55;;;;;;;18.65;3.22;;;21.40;99.90;;;;;;5074768;28;20032;-80
2021/08/02 12:31:21;;;;;;;10.05;2.08;;;21.10;99.90;;;;;;5074576;28;20102;-81
2021/08/02 12:33:50;;;;;;;8.50;2.13;;;20.50;99.90;;;;;;5074742;28;20024;-79
2021/08/02 12:36:17;;;;;;;11.77;1.73;;;20.20;99.90;;;;;;5088194;28;20112;-81
2021/08/02 12:38:44;;;;;;;13.70;2.65;;;19.80;99.90;;;;;;5095070;28;20031;-81
2021/08/02 12:41:10;;;;;;;10.27;2.25;;;19.50;99.90;;;;;;5094871;28;20020;-81
2021/08/02 12:43:35;;;;;;;11.30;2.47;;;19.30;99.90;;;;;;5094747;28;20024;-82